UERP 180900Z 20004MPS CAVOK 04/M14 Q1018 R35/820255 NOSIG RMK QFE719
QNH:(hPa/inHg/mmHg)1018 / 30.06 / 764
QFE:(hPa/inHg/mmHg)956 / 28.23 / 717
Temperature4
Dew Point-14
Visibility> 10000
WeatherCAVOK
Cloud Cover
Transition Height700 m./4000 ft.
Transition LevelFL50
SQUAWK